Time;durP1;ratioP1;P1;durP2;ratioP2;P2;SDS_P1;SDS_P2;PMS_P1;PMS_P2;Temp;Humidity;BMP_temperature;BMP_pressure;BME280_temperature;BME280_humidity;BME280_pressure;Samples;Min_cycle;Max_cycle;Signal;HPM_P1;HPM_P2
2022/01/24 00:00:11;;;;;;;2.90;2.60;;;;;;;5.68;100.00;103598.91;4969544;28;20181;-86
2022/01/24 00:02:37;;;;;;;2.97;2.77;;;;;;;5.53;100.00;103600.75;4972978;28;20888;-85
2022/01/24 00:05:04;;;;;;;3.23;2.93;;;;;;;4.81;100.00;103496.22;4974958;28;20823;-86
2022/01/24 00:07:29;;;;;;;3.60;3.30;;;;;;;5.49;100.00;103599.22;4991618;28;20724;-86
2022/01/24 00:09:58;;;;;;;5.43;3.10;;;;;;;4.70;100.00;103474.75;4981540;28;20524;-85
2022/01/24 00:12:35;;;;;;;3.03;2.83;;;;;;;5.04;100.00;103515.22;4993600;28;20178;-87
2022/01/24 00:15:15;;;;;;;3.17;2.87;;;;;;;5.72;100.00;103608.41;4993941;28;20425;-85
2022/01/24 00:18:03;;;;;;;4.53;2.50;;;;;;;5.17;100.00;103535.59;4993025;28;20456;-87
2022/01/24 00:28:23;;;;;;;3.47;3.17;;;;;;;5.35;100.00;103546.03;4989110;28;21027;-88
2022/01/24 00:30:49;;;;;;;3.47;3.17;;;;;;;5.49;100.00;103593.91;4995967;28;20444;-84
2022/01/24 00:33:15;;;;;;;4.50;3.10;;;;;;;4.82;100.00;103491.75;4996026;28;20197;-87
2022/01/24 00:35:41;;;;;;;3.50;3.20;;;;;;;5.72;100.00;103594.25;4994899;28;20281;-87
2022/01/24 00:38:07;;;;;;;2.97;2.77;;;;;;;4.92;100.00;103516.84;4990426;28;20971;-85
2022/01/24 00:40:35;;;;;;;3.10;2.87;;;;;;;3.95;100.00;103330.63;4992551;28;20446;-87
2022/01/24 00:43:01;;;;;;;2.57;2.37;;;;;;;4.65;100.00;103464.41;4994465;28;20469;-86
2022/01/24 00:46:19;;;;;;;3.40;3.10;;;;;;;4.21;100.00;103364.38;4990777;28;20449;-84
2022/01/24 00:56:11;;;;;;;4.00;2.97;;;;;;;4.61;100.00;103404.41;4990863;28;20445;-86
2022/01/24 00:58:36;;;;;;;3.33;2.83;;;;;;;5.10;100.00;103477.56;4978943;28;20217;-86
2022/01/24 01:01:03;;;;;;;3.33;3.03;;;;;;;4.06;100.00;103368.84;4991176;28;20452;-85
2022/01/24 01:03:28;;;;;;;3.50;3.07;;;;;;;4.92;100.00;103490.25;4986531;28;20822;-86
2022/01/24 01:06:04;;;;;;;3.20;3.00;;;;;;;5.70;100.00;103590.81;4976188;28;20452;-86
2022/01/24 01:19:38;;;;;;;3.27;3.00;;;;;;;5.26;100.00;103557.25;4923574;28;21118;-88
2022/01/24 01:22:04;;;;;;;3.17;2.87;;;;;;;5.29;100.00;103584.53;4979031;28;20479;-84
2022/01/24 01:24:32;;;;;;;3.63;2.90;;;;;;;4.83;100.00;103512.94;4992565;28;20335;-86
2022/01/24 01:27:06;;;;;;;3.70;3.40;;;;;;;4.60;100.00;103447.03;4989802;28;20237;-84
2022/01/24 01:29:46;;;;;;;4.37;2.77;;;;;;;4.41;100.00;103429.56;4993596;28;20439;-86
2022/01/24 01:56:19;;;;;;;3.37;2.70;;;;;;;4.70;100.00;103474.75;4989170;28;20940;-86
2022/01/24 01:58:44;;;;;;;3.07;2.87;;;;;;;4.49;100.00;103406.03;4988541;28;20448;-87
2022/01/24 02:01:10;;;;;;;3.60;2.97;;;;;;;3.96;100.00;103358.88;4989042;28;20220;-87
2022/01/24 02:03:35;;;;;;;2.97;2.77;;;;;;;5.28;100.00;103589.97;4975902;28;20217;-88
2022/01/24 02:06:01;;;;;;;3.23;2.90;;;;;;;5.14;100.00;103538.44;4985962;28;20654;-87
2022/01/24 02:08:30;;;;;;;6.13;3.37;;;;;;;5.18;100.00;103550.63;4988271;28;20732;-85
2022/01/24 02:10:57;;;;;;;3.70;3.10;;;;;;;5.06;100.00;103500.84;4988384;28;20216;-86
2022/01/24 02:13:24;;;;;;;2.93;2.73;;;;;;;5.55;100.00;103577.53;4975212;28;20452;-85
2022/01/24 02:16:02;;;;;;;4.70;3.30;;;;;;;5.09;100.00;103564.53;4990037;28;20491;-84
2022/01/24 02:18:46;;;;;;;3.77;3.10;;;;;;;5.44;100.00;103610.19;4989728;28;20452;-84
2022/01/24 02:21:46;;;;;;;3.97;3.50;;;;;;;5.54;100.00;103581.16;4979446;28;20448;-86
2022/01/24 02:24:13;;;;;;;2.93;2.73;;;;;;;5.14;100.00;103581.03;4991896;28;22452;-85
2022/01/24 02:26:42;;;;;;;3.57;2.93;;;;;;;4.10;100.00;103421.78;4987483;28;20989;-88
2022/01/24 02:32:03;;;;;;;3.70;3.10;;;;;;;4.71;100.00;103442.75;4982155;28;20934;-87
2022/01/24 02:34:34;;;;;;;3.70;3.40;;;;;;;4.60;100.00;103469.19;4988096;28;20460;-85
2022/01/24 02:37:10;;;;;;;3.47;3.00;;;;;;;4.61;100.00;103460.25;4986489;28;20540;-86
2022/01/24 02:53:07;;;;;;;3.00;2.77;;;;;;;5.23;100.00;103576.94;4987449;28;20456;-83
2022/01/24 02:55:32;;;;;;;5.43;3.00;;;;;;;4.62;100.00;103504.47;4971601;28;20452;-87
2022/01/24 02:57:58;;;;;;;3.53;3.10;;;;;;;4.97;100.00;103501.41;4989510;28;20317;-87
2022/01/24 03:00:23;;;;;;;3.00;2.80;;;;;;;4.72;100.00;103479.03;4989044;28;20193;-88
2022/01/24 03:02:49;;;;;;;4.60;3.53;;;;;;;4.60;100.00;103444.38;4974056;28;20271;-85
2022/01/24 03:05:14;;;;;;;4.47;3.77;;;;;;;4.18;100.00;103462.88;4970869;28;20682;-87
2022/01/24 03:07:40;;;;;;;5.00;4.50;;;;;;;5.04;100.00;103542.66;4990351;28;20217;-86
2022/01/24 03:10:13;;;;;;;4.60;3.67;;;;;;;5.05;100.00;103578.09;4991143;28;20213;-87
2022/01/24 03:12:43;;;;;;;4.10;3.53;;;;;;;5.36;100.00;103563.72;4988961;28;20263;-86
2022/01/24 03:15:10;;;;;;;5.10;4.60;;;;;;;4.58;100.00;103441.81;4989207;28;20439;-88
2022/01/24 03:17:35;;;;;;;5.17;4.57;;;;;;;4.86;100.00;103490.59;4988713;28;20464;-85
2022/01/24 03:20:01;;;;;;;6.13;5.10;;;;;;;4.81;100.00;103519.31;4992285;28;20471;-86
2022/01/24 03:22:26;;;;;;;4.93;4.47;;;;;;;3.79;100.00;103342.19;4988543;28;20205;-87
2022/01/24 03:24:52;;;;;;;6.27;3.80;;;;;;;4.48;100.00;103446.00;4990743;28;20228;-85
2022/01/24 03:27:17;;;;;;;4.67;4.27;;;;;;;5.14;100.00;103554.41;4988491;28;20217;-87
2022/01/24 03:29:43;;;;;;;6.07;5.57;;;;;;;3.75;100.00;103345.09;4982209;28;20198;-86
2022/01/24 03:32:08;;;;;;;5.27;4.77;;;;;;;3.77;100.00;103388.34;4972823;28;20215;-87
2022/01/24 03:34:34;;;;;;;5.90;5.30;;;;;;;5.05;100.00;103599.38;4974015;28;20206;-87
2022/01/24 03:36:59;;;;;;;5.10;4.60;;;;;;;4.58;100.00;103476.38;4986315;28;20243;-85
2022/01/24 03:39:25;;;;;;;4.53;4.13;;;;;;;5.55;100.00;103558.06;4985420;28;20268;-87
2022/01/24 03:41:50;;;;;;;4.77;4.07;;;;;;;4.91;100.00;103485.84;4991067;28;20189;-88
2022/01/24 03:44:18;;;;;;;5.10;4.50;;;;;;;5.13;100.00;103568.69;4991435;28;20208;-87
2022/01/24 03:46:59;;;;;;;4.70;4.30;;;;;;;3.99;100.00;103366.66;4992473;28;20211;-85
2022/01/24 03:52:09;;;;;;;6.20;4.97;;;;;;;5.17;100.00;103574.66;4993133;28;20490;-85
2022/01/24 03:54:35;;;;;;;5.10;4.60;;;;;;;4.33;100.00;103412.41;4971790;28;21052;-86
2022/01/24 03:57:01;;;;;;;5.97;5.37;;;;;;;4.00;100.00;103401.09;4993886;28;20236;-88
2022/01/24 03:59:26;;;;;;;6.07;5.50;;;;;;;4.83;100.00;103478.38;4997362;28;20441;-85
2022/01/24 04:01:52;;;;;;;5.40;4.90;;;;;;;4.05;100.00;103366.25;4992573;28;20193;-88
2022/01/24 04:04:17;;;;;;;5.97;4.37;;;;;;;4.24;100.00;103342.09;4993601;28;20190;-86
2022/01/24 04:06:43;;;;;;;5.30;4.80;;;;;;;5.47;100.00;103539.03;4996202;28;20702;-86
2022/01/24 04:09:08;;;;;;;5.40;4.70;;;;;;;4.21;100.00;103351.09;4997386;28;20184;-84
2022/01/24 04:11:37;;;;;;;5.50;5.00;;;;;;;4.52;100.00;103386.41;4993728;28;21146;-87
2022/01/24 04:14:24;;;;;;;5.27;4.77;;;;;;;4.36;100.00;103418.38;4995086;28;20173;-87
2022/01/24 04:17:05;;;;;;;6.33;4.30;;;;;;;4.32;100.00;103421.34;4993242;28;20495;-86
2022/01/24 04:22:18;;;;;;;4.77;4.13;;;;;;;4.27;100.00;103377.28;4994365;28;20428;-86
2022/01/24 04:24:48;;;;;;;5.70;5.10;;;;;;;4.76;100.00;103524.91;4978096;28;20540;-86
2022/01/24 04:27:14;;;;;;;5.70;5.10;;;;;;;4.37;100.00;103444.00;4989145;22;22183;-78
2022/01/24 04:29:41;;;;;;;4.33;3.93;;;;;;;4.41;100.00;103482.72;4998184;28;20514;-79
2022/01/24 04:32:07;;;;;;;4.90;4.13;;;;;;;4.71;100.00;103519.84;5000423;28;20436;-78
2022/01/24 04:34:33;;;;;;;5.00;4.53;;;;;;;4.12;100.00;103402.16;4997459;28;20443;-78
2022/01/24 04:36:58;;;;;;;5.27;4.77;;;;;;;4.60;100.00;103500.19;4999077;28;20487;-79
2022/01/24 04:39:24;;;;;;;4.40;4.00;;;;;;;4.37;100.00;103467.94;4997542;28;20188;-79
2022/01/24 04:41:53;;;;;;;4.70;4.30;;;;;;;4.92;100.00;103548.75;5000111;28;20642;-78
2022/01/24 04:52:36;;;;;;;5.93;5.33;;;;;;;4.87;100.00;103537.53;4996034;28;20440;-79
2022/01/24 04:55:02;;;;;;;6.20;5.23;;;;;;;4.73;100.00;103517.13;4995385;28;20510;-78
2022/01/24 04:57:28;;;;;;;8.03;5.67;;;;;;;4.23;100.00;103420.09;4998696;28;20546;-78
2022/01/24 04:59:58;;;;;;;6.80;6.00;;;;;;;4.45;100.00;103452.34;4995757;28;20385;-78
2022/01/24 05:02:25;;;;;;;6.00;5.40;;;;;;;4.82;100.00;103518.34;4999782;28;20490;-78
2022/01/24 05:04:50;;;;;;;6.57;5.50;;;;;;;4.83;100.00;103531.56;5013452;28;20470;-78
2022/01/24 05:07:16;;;;;;;6.23;5.63;;;;;;;4.02;100.00;103416.91;4995095;28;20542;-78
2022/01/24 05:09:48;;;;;;;7.20;6.50;;;;;;;4.45;100.00;103494.03;4996615;28;20188;-79
2022/01/24 05:12:31;;;;;;;8.37;5.90;;;;;;;4.63;100.00;103495.56;4997019;28;20261;-78
2022/01/24 05:23:28;;;;;;;7.80;6.50;;;;;;;4.30;100.00;103434.69;4997670;28;20459;-78
2022/01/24 05:25:54;;;;;;;8.60;7.30;;;;;;;4.69;100.00;103512.94;4993019;28;20513;-78
2022/01/24 05:28:20;;;;;;;8.00;7.10;;;;;;;4.63;100.00;103511.53;4994569;28;20987;-79
2022/01/24 05:30:47;;;;;;;8.53;6.63;;;;;;;4.77;100.00;103518.63;4994427;28;20448;-78
2022/01/24 05:33:12;;;;;;;6.53;5.83;;;;;;;4.41;100.00;103472.09;4998921;28;20431;-78
2022/01/24 05:35:38;;;;;;;7.17;6.17;;;;;;;4.86;100.00;103496.81;4994684;28;20924;-77
2022/01/24 05:38:04;;;;;;;8.63;7.47;;;;;;;4.47;100.00;103444.28;4995658;28;21114;-77
2022/01/24 05:40:30;;;;;;;7.80;6.23;;;;;;;5.24;100.00;103528.09;4998435;28;20816;-78
2022/01/24 05:42:55;;;;;;;7.70;6.70;;;;;;;4.94;100.00;103526.41;4993295;28;20903;-77
2022/01/24 05:45:21;;;;;;;8.60;7.60;;;;;;;3.99;100.00;103396.75;4992550;28;20437;-78
2022/01/24 05:47:46;;;;;;;8.03;6.67;;;;;;;2.91;100.00;103218.34;4993740;28;20287;-78
2022/01/24 05:50:12;;;;;;;8.13;7.13;;;;;;;4.14;100.00;103447.19;4993307;28;20229;-77
2022/01/24 05:52:37;;;;;;;10.00;7.63;;;;;;;4.44;100.00;103477.22;4992313;28;20566;-77
2022/01/24 05:55:04;;;;;;;8.13;7.33;;;;;;;4.25;100.00;103432.34;4990330;28;20223;-78
2022/01/24 05:57:29;;;;;;;7.90;7.00;;;;;;;4.48;100.00;103464.59;4990099;28;20213;-77
2022/01/24 05:59:55;;;;;;;7.97;7.17;;;;;;;4.73;100.00;103490.53;4993937;28;21153;-78
2022/01/24 06:02:21;;;;;;;8.73;7.83;;;;;;;4.51;100.00;103483.00;4990165;28;20838;-78
2022/01/24 06:04:46;;;;;;;9.23;7.30;;;;;;;4.53;100.00;103473.16;4994645;28;20441;-78
2022/01/24 06:07:12;;;;;;;8.27;7.37;;;;;;;4.07;100.00;103396.25;4996185;28;20288;-79
2022/01/24 06:09:37;;;;;;;8.97;7.40;;;;;;;4.82;100.00;103539.63;4998995;28;20197;-78
2022/01/24 06:12:03;;;;;;;9.03;7.00;;;;;;;4.54;100.00;103477.50;4994806;28;20189;-78
2022/01/24 06:14:29;;;;;;;8.67;7.77;;;;;;;4.72;100.00;103508.28;4995495;28;20188;-77
2022/01/24 06:16:54;;;;;;;13.83;7.27;;;;;;;4.85;100.00;103545.59;4992296;28;20437;-78
2022/01/24 06:19:19;;;;;;;8.70;7.67;;;;;;;4.92;100.00;103514.19;4969798;28;20214;-78
2022/01/24 06:21:45;;;;;;;10.20;8.07;;;;;;;4.85;100.00;103536.78;4976054;28;20177;-79
2022/01/24 06:24:12;;;;;;;8.73;7.17;;;;;;;4.86;100.00;103533.16;4988719;28;20200;-79
2022/01/24 06:26:38;;;;;;;10.00;7.70;;;;;;;4.07;100.00;103428.13;4992109;28;20217;-78
2022/01/24 06:29:03;;;;;;;9.60;7.63;;;;;;;4.56;100.00;103501.34;4988657;28;20451;-79
2022/01/24 06:31:29;;;;;;;8.63;7.27;;;;;;;4.92;100.00;103546.94;4993253;28;20441;-79
2022/01/24 06:33:55;;;;;;;8.87;7.97;;;;;;;4.20;100.00;103439.72;4988853;28;20224;-79
2022/01/24 06:36:20;;;;;;;9.63;8.50;;;;;;;3.77;100.00;103378.59;4998281;28;20185;-78
2022/01/24 06:38:46;;;;;;;10.70;8.73;;;;;;;4.86;100.00;103530.50;4992968;28;20201;-79
2022/01/24 06:41:11;;;;;;;9.40;7.90;;;;;;;4.44;100.00;103479.03;4997196;28;20240;-79
2022/01/24 06:43:36;;;;;;;11.20;8.70;;;;;;;4.70;100.00;103546.56;4996222;28;20208;-80
2022/01/24 06:46:02;;;;;;;14.10;8.20;;;;;;;3.91;100.00;103398.16;4993470;28;20549;-81
2022/01/24 06:48:28;;;;;;;11.10;8.57;;;;;;;4.53;100.00;103513.88;4993384;28;20224;-79
2022/01/24 06:50:54;;;;;;;9.77;7.90;;;;;;;4.34;100.00;103470.78;4988716;28;20509;-79
2022/01/24 06:53:19;;;;;;;10.10;9.10;;;;;;;4.74;100.00;103562.25;4992450;28;20173;-80
2022/01/24 06:55:44;;;;;;;9.10;8.20;;;;;;;4.46;100.00;103467.38;4995449;28;20212;-78
2022/01/24 06:58:10;;;;;;;10.60;9.10;;;;;;;4.64;100.00;103494.59;4989532;28;20226;-77
2022/01/24 07:00:35;;;;;;;11.10;8.20;;;;;;;4.04;100.00;103433.63;4994359;28;20216;-78
2022/01/24 07:03:02;;;;;;;14.77;9.50;;;;;;;3.07;100.00;103271.34;4993559;28;20620;-77
2022/01/24 07:05:28;;;;;;;10.83;9.70;;;;;;;4.55;100.00;103497.84;4989580;28;20265;-78
2022/01/24 07:07:56;;;;;;;10.70;8.77;;;;;;;4.17;100.00;103436.41;4991790;28;20460;-78
2022/01/24 07:10:23;;;;;;;11.90;10.47;;;;;;;4.90;100.00;103548.84;4985267;28;20494;-78
2022/01/24 07:12:50;;;;;;;10.13;8.50;;;;;;;4.70;100.00;103496.88;4993327;28;20445;-78
2022/01/24 07:15:17;;;;;;;11.67;9.43;;;;;;;4.92;100.00;103544.28;4991290;28;20446;-77
2022/01/24 07:20:16;;;;;;;13.63;10.43;;;;;;;4.86;100.00;103550.00;4995397;28;20522;-78
2022/01/24 07:22:42;;;;;;;10.53;9.33;;;;;;;4.92;100.00;103554.06;4993408;28;20471;-78
2022/01/24 07:25:08;;;;;;;12.97;9.80;;;;;;;4.30;100.00;103467.44;4994211;28;20459;-77
2022/01/24 07:27:33;;;;;;;12.13;10.27;;;;;;;4.82;100.00;103535.16;4988338;28;20213;-77
2022/01/24 07:29:58;;;;;;;13.40;10.10;;;;;;;4.18;100.00;103440.75;4994744;28;21283;-77
2022/01/24 07:32:24;;;;;;;10.33;9.23;;;;;;;4.14;100.00;103431.25;4995775;28;20185;-78
2022/01/24 07:34:50;;;;;;;10.43;9.40;;;;;;;4.26;100.00;103433.19;4992173;28;20203;-78
2022/01/24 07:37:16;;;;;;;12.23;9.90;;;;;;;4.59;100.00;103466.59;4989886;28;20209;-80
2022/01/24 07:39:42;;;;;;;11.90;10.07;;;;;;;4.62;100.00;103504.47;4991606;28;20439;-80
2022/01/24 07:42:16;;;;;;;10.13;9.07;;;;;;;5.19;100.00;103556.81;4997600;28;20440;-80
2022/01/24 07:44:41;;;;;;;13.20;9.43;;;;;;;3.77;100.00;103304.25;4997452;28;20191;-80
2022/01/24 07:47:07;;;;;;;11.83;9.53;;;;;;;5.06;100.00;103567.34;4996254;28;20456;-78
2022/01/24 07:49:34;;;;;;;10.50;9.37;;;;;;;4.89;100.00;103527.63;4997638;28;20559;-77
2022/01/24 07:52:00;;;;;;;12.90;10.83;;;;;;;4.97;100.00;103531.53;4995531;28;20192;-78
2022/01/24 07:54:26;;;;;;;13.80;10.30;;;;;;;5.17;100.00;103543.56;4992698;28;20956;-78
2022/01/24 07:56:52;;;;;;;13.30;10.13;;;;;;;4.44;100.00;103445.34;4993357;28;20441;-78
2022/01/24 07:59:18;;;;;;;13.70;10.70;;;;;;;5.00;100.00;103565.06;4988980;28;20197;-78
2022/01/24 08:01:43;;;;;;;11.00;9.70;;;;;;;4.99;100.00;103566.88;4993696;28;20193;-79
2022/01/24 08:04:09;;;;;;;13.77;10.47;;;;;;;4.84;100.00;103522.63;4993283;28;20534;-79
2022/01/24 08:06:34;;;;;;;12.30;10.23;;;;;;;4.47;100.00;103457.59;4992508;28;20204;-79
2022/01/24 08:09:00;;;;;;;13.20;10.80;;;;;;;4.62;100.00;103439.81;4999000;28;20193;-78
2022/01/24 08:11:25;;;;;;;11.80;10.27;;;;;;;5.19;100.00;103576.28;4992750;28;20220;-79
2022/01/24 08:13:54;;;;;;;16.30;10.93;;;;;;;4.70;100.00;103534.09;4991946;28;20738;-79
2022/01/24 08:16:19;;;;;;;12.20;10.50;;;;;;;5.06;100.00;103580.63;4995243;28;20185;-79
2022/01/24 08:18:45;;;;;;;13.70;11.80;;;;;;;3.72;100.00;103390.41;4997702;28;20518;-79
2022/01/24 08:21:10;;;;;;;13.40;10.80;;;;;;;3.84;100.00;103401.16;4996821;28;20278;-79
2022/01/24 08:23:36;;;;;;;12.17;10.80;;;;;;;4.69;100.00;103545.69;4995091;28;20221;-81
2022/01/24 08:26:01;;;;;;;13.83;10.60;;;;;;;4.58;100.00;103508.28;4993606;28;20193;-79
2022/01/24 08:28:27;;;;;;;17.50;11.07;;;;;;;4.65;100.00;103517.56;4996505;28;20700;-79
2022/01/24 08:30:53;;;;;;;13.67;11.03;;;;;;;5.00;100.00;103573.03;5001185;28;20696;-80
2022/01/24 08:33:19;;;;;;;13.90;10.10;;;;;;;5.08;100.00;103581.41;4995389;28;20189;-79
2022/01/24 08:35:44;;;;;;;13.07;11.37;;;;;;;4.82;100.00;103526.31;4996442;28;20509;-79
2022/01/24 08:38:10;;;;;;;12.33;10.90;;;;;;;4.55;100.00;103502.31;5000072;28;20670;-80
2022/01/24 08:40:38;;;;;;;15.67;12.17;;;;;;;4.97;100.00;103570.56;4997025;28;20193;-82
2022/01/24 08:43:06;;;;;;;14.47;11.43;;;;;;;3.73;100.00;103382.38;5000806;28;20205;-80
2022/01/24 08:45:48;;;;;;;12.70;11.10;;;;;;;3.64;100.00;103366.97;4996909;28;20435;-79
2022/01/24 08:48:16;;;;;;;12.30;10.80;;;;;;;5.19;100.00;103575.44;4997159;28;21226;-80
2022/01/24 08:50:42;;;;;;;14.00;11.87;;;;;;;4.52;100.00;103498.03;4997987;28;20441;-80
2022/01/24 08:53:09;;;;;;;12.80;11.43;;;;;;;5.06;100.00;103546.06;4995368;28;20436;-80
2022/01/24 08:55:35;;;;;;;13.20;10.87;;;;;;;4.97;100.00;103571.44;4998056;28;21026;-79
2022/01/24 08:58:03;;;;;;;12.37;10.87;;;;;;;5.12;100.00;103574.97;4997112;28;20467;-78
2022/01/24 09:00:29;;;;;;;12.87;10.20;;;;;;;5.38;100.00;103581.31;4994806;28;20443;-79
2022/01/24 09:02:55;;;;;;;12.07;10.17;;;;;;;4.84;100.00;103519.13;4997453;28;20590;-79
2022/01/24 09:05:23;;;;;;;12.90;10.90;;;;;;;4.82;100.00;103479.31;4999117;28;20833;-80
2022/01/24 09:07:50;;;;;;;11.37;10.03;;;;;;;4.92;100.00;103564.72;4984316;28;20479;-79
2022/01/24 09:10:16;;;;;;;13.20;10.90;;;;;;;4.88;100.00;103558.69;4993970;28;20451;-79
2022/01/24 09:12:42;;;;;;;14.37;11.83;;;;;;;4.87;100.00;103556.16;4997742;28;20499;-79
2022/01/24 09:15:08;;;;;;;12.53;10.57;;;;;;;3.97;100.00;103405.75;4994690;28;20451;-79
2022/01/24 09:17:34;;;;;;;14.63;11.87;;;;;;;4.33;100.00;103471.72;5000513;28;20244;-79
2022/01/24 09:20:00;;;;;;;14.00;11.47;;;;;;;4.21;100.00;103401.56;5000200;28;20499;-80
2022/01/24 09:22:26;;;;;;;13.80;10.90;;;;;;;4.59;100.00;103482.53;5001137;28;20952;-79
2022/01/24 09:24:51;;;;;;;12.70;10.57;;;;;;;4.90;100.00;103553.31;4997456;28;20292;-79
2022/01/24 09:27:17;;;;;;;13.57;10.70;;;;;;;4.21;100.00;103452.06;4996429;28;20222;-80
2022/01/24 09:29:42;;;;;;;10.43;9.30;;;;;;;4.96;100.00;103566.22;4998518;28;20193;-79
2022/01/24 09:32:07;;;;;;;15.60;11.03;;;;;;;4.78;100.00;103524.81;4994497;28;20192;-80
2022/01/24 09:34:33;;;;;;;12.60;10.73;;;;;;;5.19;100.00;103567.44;4998968;28;20185;-79
2022/01/24 09:37:00;;;;;;;12.67;10.30;;;;;;;4.66;100.00;103484.75;4996549;28;20352;-78
2022/01/24 09:39:25;;;;;;;12.77;10.60;;;;;;;5.01;100.00;103569.47;4994362;28;22178;-77
2022/01/24 09:41:52;;;;;;;12.73;10.90;;;;;;;4.33;100.00;103445.13;4986526;28;20439;-80
2022/01/24 09:44:17;;;;;;;11.60;9.50;;;;;;;4.44;100.00;103453.31;4989800;28;20217;-80
2022/01/24 09:46:44;;;;;;;12.13;9.80;;;;;;;4.15;100.00;103378.06;4992532;28;20448;-80
2022/01/24 09:49:10;;;;;;;12.10;10.00;;;;;;;5.26;100.00;103583.88;4989967;28;20203;-80
2022/01/24 09:51:37;;;;;;;11.00;9.07;;;;;;;5.47;100.00;103569.22;4987351;28;20439;-79
2022/01/24 09:54:06;;;;;;;10.27;9.27;;;;;;;5.29;100.00;103525.13;4997291;28;21052;-79
2022/01/24 09:56:32;;;;;;;13.60;10.30;;;;;;;5.12;100.00;103571.44;4999038;28;20443;-79
2022/01/24 09:58:57;;;;;;;11.30;10.10;;;;;;;5.09;100.00;103502.44;4995156;28;20532;-79
2022/01/24 10:01:23;;;;;;;11.23;9.90;;;;;;;5.36;100.00;103547.75;4990779;28;20190;-79
2022/01/24 10:04:10;;;;;;;13.03;9.30;;;;;;;5.49;100.00;103579.75;4997794;28;20209;-78
2022/01/24 10:07:12;;;;;;;11.03;9.37;;;;;;;5.28;100.00;103534.91;4995330;28;20631;-80
2022/01/24 10:09:54;;;;;;;12.17;9.07;;;;;;;5.49;100.00;103585.06;4987008;28;20497;-79
2022/01/24 10:17:42;;;;;;;10.33;8.67;;;;;;;5.61;100.00;103587.81;4996534;28;20455;-79
2022/01/24 10:20:25;;;;;;;13.03;9.60;;;;;;;5.65;100.00;103586.66;4997750;28;20432;-79
2022/01/24 10:23:09;;;;;;;9.90;8.67;;;;;;;5.77;100.00;103585.00;4997031;28;21040;-80
2022/01/24 10:25:55;;;;;;;10.80;9.70;;;;;;;5.68;100.00;103588.28;4997066;28;20464;-79
2022/01/24 10:28:43;;;;;;;11.57;9.47;;;;;;;5.14;100.00;103514.50;4998155;28;20463;-79
2022/01/24 10:31:19;;;;;;;10.27;8.83;;;;;;;5.68;100.00;103582.94;4995142;28;20437;-79
2022/01/24 10:34:03;;;;;;;9.57;8.57;;;;;;;5.91;100.00;103589.44;4992589;28;20524;-79
2022/01/24 10:36:39;;;;;;;11.10;10.00;;;;;;;5.57;100.00;103567.66;4998827;28;20495;-79
2022/01/24 10:39:11;;;;;;;12.43;8.73;;;;;;;5.70;100.00;103594.34;4992609;28;20447;-79
2022/01/24 10:41:58;;;;;;;9.63;8.63;;;;;;;5.12;100.00;103481.84;4987290;28;20436;-81
2022/01/24 10:44:33;;;;;;;10.80;8.20;;;;;;;5.83;100.00;103603.25;4997605;28;20468;-80
2022/01/24 10:47:19;;;;;;;10.20;8.70;;;;;;;5.95;100.00;103595.44;4994157;28;21065;-80
2022/01/24 10:49:46;;;;;;;10.50;9.17;;;;;;;5.89;100.00;103589.53;4998885;28;20436;-80
2022/01/24 10:52:19;;;;;;;9.40;7.80;;;;;;;5.83;100.00;103565.94;4989223;28;20432;-79
2022/01/24 10:54:48;;;;;;;9.87;8.87;;;;;;;5.77;100.00;103579.66;4995185;28;20440;-78
2022/01/24 10:57:26;;;;;;;11.40;9.10;;;;;;;5.76;100.00;103577.97;4993800;28;20464;-79
2022/01/24 11:00:08;;;;;;;11.03;9.60;;;;;;;5.55;100.00;103526.09;4999218;28;20959;-79
2022/01/24 11:02:41;;;;;;;14.73;10.07;;;;;;;5.89;100.00;103580.69;4995247;28;20474;-79
2022/01/24 11:05:25;;;;;;;12.80;10.50;;;;;;;5.81;100.00;103569.66;4992198;28;20450;-79
2022/01/24 11:08:01;;;;;;;12.17;10.87;;;;;;;5.88;100.00;103565.66;4993542;28;20494;-80
2022/01/24 11:10:32;;;;;;;13.40;11.30;;;;;;;5.87;100.00;103563.94;4990609;28;20444;-79
2022/01/24 11:12:58;;;;;;;13.40;12.00;;;;;;;5.42;100.00;103473.66;4994750;28;20817;-79
2022/01/24 11:15:25;;;;;;;13.37;11.23;;;;;;;5.91;100.00;103557.47;4982974;28;20454;-78
2022/01/24 11:17:52;;;;;;;13.60;11.63;;;;;;;4.86;100.00;103394.84;4978540;28;20332;-76
2022/01/24 11:20:18;;;;;;;14.80;13.20;;;;;;;5.81;100.00;103565.19;4983235;28;21489;-79
2022/01/24 11:22:58;;;;;;;17.87;13.43;;;;;;;5.90;100.00;103558.41;4986501;28;20475;-79
2022/01/24 11:25:25;;;;;;;14.33;12.80;;;;;;;5.89;100.00;103562.88;4988723;28;20995;-78
2022/01/24 11:27:51;;;;;;;20.83;15.57;;;;;;;5.65;100.00;103528.06;4987055;28;20568;-77
2022/01/24 11:30:22;;;;;;;17.90;15.30;;;;;;;5.81;100.00;103549.22;4993972;28;20444;-78
2022/01/24 11:32:55;;;;;;;15.03;13.37;;;;;;;5.40;100.00;103496.00;4987348;28;20536;-78
2022/01/24 11:35:53;;;;;;;18.17;13.60;;;;;;;5.80;100.00;103555.50;4989017;28;20444;-78
2022/01/24 11:38:27;;;;;;;16.17;13.90;;;;;;;5.36;100.00;103473.22;4987291;28;20506;-78
2022/01/24 11:40:59;;;;;;;16.60;13.63;;;;;;;5.87;100.00;103554.16;4987807;28;20444;-78
2022/01/24 11:43:36;;;;;;;16.43;13.27;;;;;;;5.46;100.00;103500.09;4976947;28;20897;-79
2022/01/24 11:46:25;;;;;;;15.13;12.10;;;;;;;6.03;100.00;103551.34;4988304;28;20433;-79
2022/01/24 11:49:15;;;;;;;16.10;12.30;;;;;;;5.73;100.00;103516.03;4983377;28;20488;-77
2022/01/24 11:51:47;;;;;;;12.77;11.10;;;;;;;5.57;100.00;103509.06;4986726;28;20437;-76
2022/01/24 11:54:48;;;;;;;12.40;10.63;;;;;;;5.72;100.00;103522.34;4986433;28;20429;-77
2022/01/24 11:57:40;;;;;;;14.63;10.80;;;;;;;5.86;100.00;103543.59;4994166;28;20462;-79
2022/01/24 12:00:05;;;;;;;11.73;10.23;;;;;;;6.08;100.00;103549.22;4988563;28;21015;-78
2022/01/24 12:02:56;;;;;;;14.07;11.80;;;;;;;5.75;100.00;103519.47;4992657;28;21049;-76
2022/01/24 12:05:27;;;;;;;15.90;12.53;;;;;;;5.92;100.00;103507.69;4998256;28;20177;-76
2022/01/24 12:07:58;;;;;;;14.43;11.97;;;;;;;5.84;100.00;103541.03;4988457;28;20814;-76
2022/01/24 12:10:43;;;;;;;13.00;10.80;;;;;;;5.91;100.00;103533.50;5006960;23;20509;-80
2022/01/24 12:13:20;;;;;;;15.27;12.53;;;;;;;5.46;100.00;103500.09;5026587;28;20438;-79
2022/01/24 12:15:49;;;;;;;17.50;11.93;;;;;;;5.85;100.00;103533.91;5022332;28;20437;-80
2022/01/24 12:18:27;;;;;;;16.30;13.77;;;;;;;5.91;100.00;103520.16;5039895;28;20470;-79
2022/01/24 12:21:06;;;;;;;17.63;15.10;;;;;;;5.51;100.00;103477.53;5044838;28;20503;-79
2022/01/24 12:23:53;;;;;;;20.00;15.60;;;;;;;5.91;100.00;103519.31;5026418;28;20458;-79
2022/01/24 12:26:18;;;;;;;22.83;17.00;;;;;;;5.89;100.00;103522.06;5023703;28;20438;-80
2022/01/24 12:28:44;;;;;;;24.50;18.23;;;;;;;5.93;100.00;103504.97;5043649;28;20444;-81
2022/01/24 12:31:21;;;;;;;21.33;16.67;;;;;;;6.01;100.00;103502.63;5028372;28;20226;-81
2022/01/24 12:33:53;;;;;;;20.60;16.67;;;;;;;5.75;100.00;103503.50;5039254;28;20886;-79
2022/01/24 12:36:47;;;;;;;22.40;17.17;;;;;;;5.91;100.00;103496.19;5039739;28;20472;-80
2022/01/24 12:39:38;;;;;;;26.67;18.50;;;;;;;4.85;100.00;103316.88;5033741;28;20438;-79
2022/01/24 12:42:13;;;;;;;25.20;19.50;;;;;;;6.14;100.00;103502.66;5023048;28;20455;-80
2022/01/24 12:47:14;;;;;;;24.80;19.17;;;;;;;5.43;100.00;103431.94;5038989;28;20435;-81
2022/01/24 12:49:41;;;;;;;25.90;20.27;;;;;;;5.88;100.00;103502.56;5022396;28;21288;-81
2022/01/24 12:52:15;;;;;;;25.70;19.50;;;;;;;5.78;100.00;103487.31;5034722;28;20507;-79
2022/01/24 12:54:44;;;;;;;29.77;22.10;;;;;;;5.83;100.00;103482.53;5024656;28;21049;-79
2022/01/24 12:57:14;;;;;;;26.00;19.50;;;;;;;5.89;100.00;103485.63;5040393;28;20441;-79
2022/01/24 12:59:39;;;;;;;29.10;22.13;;;;;;;5.57;100.00;103449.66;5044000;28;20446;-80
2022/01/24 13:02:08;;;;;;;26.50;21.50;;;;;;;5.62;100.00;103461.72;5020152;28;20939;-81
2022/01/24 13:04:38;;;;;;;27.13;20.87;;;;;;;5.10;100.00;103371.16;5042862;28;20206;-80
2022/01/24 13:07:09;;;;;;;26.13;20.80;;;;;;;5.42;100.00;103403.63;5013329;28;20525;-80